sensor_id;sensor_type;location;lat;lon;timestamp;P1;durP1;ratioP1;P2;durP2;ratioP2
37527;SDS011;23372;52.050;4.810;2023-07-13T00:00:24;16.27;;;3.72;;
37527;SDS011;23372;52.050;4.810;2023-07-13T00:02:50;23.08;;;4.03;;
37527;SDS011;23372;52.050;4.810;2023-07-13T00:05:18;17.88;;;4.32;;
37527;SDS011;23372;52.050;4.810;2023-07-13T00:07:45;19.33;;;3.83;;
37527;SDS011;23372;52.050;4.810;2023-07-13T00:10:11;18.85;;;3.97;;
37527;SDS011;23372;52.050;4.810;2023-07-13T00:12:37;16.13;;;3.53;;
37527;SDS011;23372;52.050;4.810;2023-07-13T00:15:05;19.33;;;3.67;;
37527;SDS011;23372;52.050;4.810;2023-07-13T00:17:34;17.05;;;4.70;;
37527;SDS011;23372;52.050;4.810;2023-07-13T00:20:01;18.95;;;4.38;;
37527;SDS011;23372;52.050;4.810;2023-07-13T00:22:28;16.52;;;3.63;;
37527;SDS011;23372;52.050;4.810;2023-07-13T00:24:54;20.48;;;4.05;;
37527;SDS011;23372;52.050;4.810;2023-07-13T00:27:23;21.42;;;4.25;;
37527;SDS011;23372;52.050;4.810;2023-07-13T00:29:51;17.20;;;4.05;;
37527;SDS011;23372;52.050;4.810;2023-07-13T00:32:17;18.15;;;4.47;;
37527;SDS011;23372;52.050;4.810;2023-07-13T00:34:43;23.23;;;4.65;;
37527;SDS011;23372;52.050;4.810;2023-07-13T00:37:09;18.70;;;4.05;;
37527;SDS011;23372;52.050;4.810;2023-07-13T00:39:34;19.55;;;4.13;;
37527;SDS011;23372;52.050;4.810;2023-07-13T00:42:01;16.42;;;4.85;;
37527;SDS011;23372;52.050;4.810;2023-07-13T00:44:28;22.70;;;4.13;;
37527;SDS011;23372;52.050;4.810;2023-07-13T00:46:54;17.08;;;3.67;;
37527;SDS011;23372;52.050;4.810;2023-07-13T00:49:22;23.73;;;4.03;;
37527;SDS011;23372;52.050;4.810;2023-07-13T00:51:49;16.30;;;4.22;;
37527;SDS011;23372;52.050;4.810;2023-07-13T00:54:20;22.77;;;4.20;;
37527;SDS011;23372;52.050;4.810;2023-07-13T00:56:55;19.25;;;4.72;;
37527;SDS011;23372;52.050;4.810;2023-07-13T00:59:25;12.98;;;3.78;;
37527;SDS011;23372;52.050;4.810;2023-07-13T01:01:51;17.90;;;3.22;;
37527;SDS011;23372;52.050;4.810;2023-07-13T01:04:18;13.68;;;3.45;;
37527;SDS011;23372;52.050;4.810;2023-07-13T01:06:44;12.52;;;3.60;;
37527;SDS011;23372;52.050;4.810;2023-07-13T01:09:12;14.75;;;3.53;;
37527;SDS011;23372;52.050;4.810;2023-07-13T01:11:38;12.88;;;3.50;;
37527;SDS011;23372;52.050;4.810;2023-07-13T01:14:06;16.25;;;3.38;;
37527;SDS011;23372;52.050;4.810;2023-07-13T01:16:32;15.98;;;3.42;;
37527;SDS011;23372;52.050;4.810;2023-07-13T01:19:00;13.60;;;3.15;;
37527;SDS011;23372;52.050;4.810;2023-07-13T01:21:27;22.55;;;3.92;;
37527;SDS011;23372;52.050;4.810;2023-07-13T01:23:55;17.10;;;4.45;;
37527;SDS011;23372;52.050;4.810;2023-07-13T01:26:21;14.15;;;4.30;;
37527;SDS011;23372;52.050;4.810;2023-07-13T01:28:47;16.10;;;3.60;;
37527;SDS011;23372;52.050;4.810;2023-07-13T01:31:12;13.82;;;3.25;;
37527;SDS011;23372;52.050;4.810;2023-07-13T01:33:38;12.65;;;3.58;;
37527;SDS011;23372;52.050;4.810;2023-07-13T01:36:08;14.27;;;3.58;;
37527;SDS011;23372;52.050;4.810;2023-07-13T01:38:35;13.35;;;3.40;;
37527;SDS011;23372;52.050;4.810;2023-07-13T01:41:01;20.23;;;4.75;;
37527;SDS011;23372;52.050;4.810;2023-07-13T01:43:28;14.45;;;3.35;;
37527;SDS011;23372;52.050;4.810;2023-07-13T01:45:54;20.02;;;3.97;;
37527;SDS011;23372;52.050;4.810;2023-07-13T01:48:19;14.30;;;4.25;;
37527;SDS011;23372;52.050;4.810;2023-07-13T01:50:45;14.98;;;4.00;;
37527;SDS011;23372;52.050;4.810;2023-07-13T01:53:12;16.60;;;4.35;;
37527;SDS011;23372;52.050;4.810;2023-07-13T01:55:38;13.95;;;3.70;;
37527;SDS011;23372;52.050;4.810;2023-07-13T01:58:04;12.43;;;3.13;;
37527;SDS011;23372;52.050;4.810;2023-07-13T02:00:30;17.40;;;4.03;;
37527;SDS011;23372;52.050;4.810;2023-07-13T02:02:56;8.90;;;3.13;;
37527;SDS011;23372;52.050;4.810;2023-07-13T02:05:21;12.82;;;3.67;;
37527;SDS011;23372;52.050;4.810;2023-07-13T02:07:47;20.35;;;3.63;;
37527;SDS011;23372;52.050;4.810;2023-07-13T02:10:14;16.70;;;3.50;;
37527;SDS011;23372;52.050;4.810;2023-07-13T02:12:40;22.55;;;3.72;;
37527;SDS011;23372;52.050;4.810;2023-07-13T02:15:06;14.90;;;4.15;;
37527;SDS011;23372;52.050;4.810;2023-07-13T02:17:33;15.43;;;3.97;;
37527;SDS011;23372;52.050;4.810;2023-07-13T02:20:00;14.52;;;3.40;;
37527;SDS011;23372;52.050;4.810;2023-07-13T02:22:26;15.50;;;3.78;;
37527;SDS011;23372;52.050;4.810;2023-07-13T02:24:52;13.85;;;3.40;;
37527;SDS011;23372;52.050;4.810;2023-07-13T02:27:18;20.65;;;3.67;;
37527;SDS011;23372;52.050;4.810;2023-07-13T02:29:44;17.83;;;4.22;;
37527;SDS011;23372;52.050;4.810;2023-07-13T02:32:09;14.73;;;3.47;;
37527;SDS011;23372;52.050;4.810;2023-07-13T02:34:35;10.60;;;2.58;;
37527;SDS011;23372;52.050;4.810;2023-07-13T02:37:01;10.13;;;2.40;;
37527;SDS011;23372;52.050;4.810;2023-07-13T02:39:27;12.38;;;2.67;;
37527;SDS011;23372;52.050;4.810;2023-07-13T02:41:52;9.57;;;2.30;;
37527;SDS011;23372;52.050;4.810;2023-07-13T02:44:18;10.98;;;3.78;;
37527;SDS011;23372;52.050;4.810;2023-07-13T02:46:44;9.48;;;2.60;;
37527;SDS011;23372;52.050;4.810;2023-07-13T02:49:09;12.43;;;2.70;;
37527;SDS011;23372;52.050;4.810;2023-07-13T02:51:35;10.55;;;2.50;;
37527;SDS011;23372;52.050;4.810;2023-07-13T02:54:02;8.10;;;2.55;;
37527;SDS011;23372;52.050;4.810;2023-07-13T02:56:28;12.30;;;3.30;;
37527;SDS011;23372;52.050;4.810;2023-07-13T02:58:55;11.27;;;2.45;;
37527;SDS011;23372;52.050;4.810;2023-07-13T03:01:21;9.75;;;2.55;;
37527;SDS011;23372;52.050;4.810;2023-07-13T03:03:48;14.05;;;2.65;;
37527;SDS011;23372;52.050;4.810;2023-07-13T03:06:15;16.77;;;3.78;;
37527;SDS011;23372;52.050;4.810;2023-07-13T03:08:42;10.30;;;2.65;;
37527;SDS011;23372;52.050;4.810;2023-07-13T03:11:09;7.32;;;2.08;;
37527;SDS011;23372;52.050;4.810;2023-07-13T03:13:38;6.93;;;2.50;;
37527;SDS011;23372;52.050;4.810;2023-07-13T03:16:05;11.00;;;3.30;;
37527;SDS011;23372;52.050;4.810;2023-07-13T03:18:31;15.45;;;3.83;;
37527;SDS011;23372;52.050;4.810;2023-07-13T03:20:58;13.88;;;3.13;;
37527;SDS011;23372;52.050;4.810;2023-07-13T03:23:24;7.85;;;2.70;;
37527;SDS011;23372;52.050;4.810;2023-07-13T03:25:50;11.38;;;2.90;;
37527;SDS011;23372;52.050;4.810;2023-07-13T03:28:25;8.80;;;2.85;;
37527;SDS011;23372;52.050;4.810;2023-07-13T03:30:58;9.82;;;2.50;;
37527;SDS011;23372;52.050;4.810;2023-07-13T03:33:29;10.38;;;3.15;;
37527;SDS011;23372;52.050;4.810;2023-07-13T03:35:55;14.20;;;3.63;;
37527;SDS011;23372;52.050;4.810;2023-07-13T03:38:21;12.63;;;2.78;;
37527;SDS011;23372;52.050;4.810;2023-07-13T03:40:47;10.23;;;2.83;;
37527;SDS011;23372;52.050;4.810;2023-07-13T03:43:13;8.48;;;2.35;;
37527;SDS011;23372;52.050;4.810;2023-07-13T03:45:38;12.25;;;2.65;;
37527;SDS011;23372;52.050;4.810;2023-07-13T03:48:04;14.32;;;3.20;;
37527;SDS011;23372;52.050;4.810;2023-07-13T03:50:30;14.23;;;3.05;;
37527;SDS011;23372;52.050;4.810;2023-07-13T03:52:59;15.52;;;3.10;;
37527;SDS011;23372;52.050;4.810;2023-07-13T03:55:25;18.83;;;3.47;;
37527;SDS011;23372;52.050;4.810;2023-07-13T03:57:53;12.43;;;3.20;;
37527;SDS011;23372;52.050;4.810;2023-07-13T04:00:23;14.45;;;3.35;;
37527;SDS011;23372;52.050;4.810;2023-07-13T04:02:49;14.75;;;3.45;;
37527;SDS011;23372;52.050;4.810;2023-07-13T04:05:16;13.18;;;4.22;;
37527;SDS011;23372;52.050;4.810;2023-07-13T04:07:41;11.00;;;3.15;;
37527;SDS011;23372;52.050;4.810;2023-07-13T04:10:07;9.60;;;3.25;;
37527;SDS011;23372;52.050;4.810;2023-07-13T04:12:33;15.90;;;3.67;;
37527;SDS011;23372;52.050;4.810;2023-07-13T04:14:59;14.55;;;4.28;;
37527;SDS011;23372;52.050;4.810;2023-07-13T04:17:25;17.67;;;4.30;;
37527;SDS011;23372;52.050;4.810;2023-07-13T04:19:51;15.75;;;4.35;;
37527;SDS011;23372;52.050;4.810;2023-07-13T04:22:16;17.38;;;4.13;;
37527;SDS011;23372;52.050;4.810;2023-07-13T04:24:42;16.50;;;4.05;;
37527;SDS011;23372;52.050;4.810;2023-07-13T04:27:08;14.20;;;4.85;;
37527;SDS011;23372;52.050;4.810;2023-07-13T04:29:34;14.15;;;4.43;;
37527;SDS011;23372;52.050;4.810;2023-07-13T04:32:00;16.20;;;3.97;;
37527;SDS011;23372;52.050;4.810;2023-07-13T04:34:26;21.52;;;5.60;;
37527;SDS011;23372;52.050;4.810;2023-07-13T04:36:51;20.90;;;5.28;;
37527;SDS011;23372;52.050;4.810;2023-07-13T04:39:17;26.70;;;6.10;;
37527;SDS011;23372;52.050;4.810;2023-07-13T04:41:43;17.92;;;5.05;;
37527;SDS011;23372;52.050;4.810;2023-07-13T04:44:09;21.92;;;4.85;;
37527;SDS011;23372;52.050;4.810;2023-07-13T04:46:34;17.63;;;5.22;;
37527;SDS011;23372;52.050;4.810;2023-07-13T04:49:00;22.88;;;5.35;;
37527;SDS011;23372;52.050;4.810;2023-07-13T04:51:25;18.20;;;6.20;;
37527;SDS011;23372;52.050;4.810;2023-07-13T04:53:51;18.20;;;5.63;;
37527;SDS011;23372;52.050;4.810;2023-07-13T04:56:18;17.83;;;6.30;;
37527;SDS011;23372;52.050;4.810;2023-07-13T04:58:44;23.60;;;6.78;;
37527;SDS011;23372;52.050;4.810;2023-07-13T05:01:10;22.80;;;6.28;;
37527;SDS011;23372;52.050;4.810;2023-07-13T05:03:37;15.43;;;5.05;;
37527;SDS011;23372;52.050;4.810;2023-07-13T05:06:04;34.70;;;5.85;;
37527;SDS011;23372;52.050;4.810;2023-07-13T05:08:31;26.10;;;6.68;;
37527;SDS011;23372;52.050;4.810;2023-07-13T05:10:59;27.67;;;6.63;;
37527;SDS011;23372;52.050;4.810;2023-07-13T05:13:25;20.85;;;5.72;;
37527;SDS011;23372;52.050;4.810;2023-07-13T05:15:55;22.15;;;6.07;;
37527;SDS011;23372;52.050;4.810;2023-07-13T05:18:29;19.77;;;5.47;;
37527;SDS011;23372;52.050;4.810;2023-07-13T05:20:57;15.57;;;5.60;;
37527;SDS011;23372;52.050;4.810;2023-07-13T05:23:24;25.25;;;6.40;;
37527;SDS011;23372;52.050;4.810;2023-07-13T05:25:50;18.92;;;5.20;;
37527;SDS011;23372;52.050;4.810;2023-07-13T05:28:16;24.38;;;5.90;;
37527;SDS011;23372;52.050;4.810;2023-07-13T05:30:46;26.35;;;8.15;;
37527;SDS011;23372;52.050;4.810;2023-07-13T05:33:12;21.80;;;5.80;;
37527;SDS011;23372;52.050;4.810;2023-07-13T05:35:38;21.77;;;6.40;;
37527;SDS011;23372;52.050;4.810;2023-07-13T05:38:04;20.35;;;6.43;;
37527;SDS011;23372;52.050;4.810;2023-07-13T05:40:30;23.58;;;5.85;;
37527;SDS011;23372;52.050;4.810;2023-07-13T05:42:56;25.30;;;6.47;;
37527;SDS011;23372;52.050;4.810;2023-07-13T05:45:21;27.67;;;6.13;;
37527;SDS011;23372;52.050;4.810;2023-07-13T05:47:48;23.23;;;5.97;;
37527;SDS011;23372;52.050;4.810;2023-07-13T05:50:14;23.20;;;6.43;;
37527;SDS011;23372;52.050;4.810;2023-07-13T05:52:39;29.52;;;7.20;;
37527;SDS011;23372;52.050;4.810;2023-07-13T05:55:05;21.73;;;6.63;;
37527;SDS011;23372;52.050;4.810;2023-07-13T05:57:32;16.58;;;5.57;;
37527;SDS011;23372;52.050;4.810;2023-07-13T05:59:57;25.85;;;6.15;;
37527;SDS011;23372;52.050;4.810;2023-07-13T06:02:23;16.52;;;4.60;;
37527;SDS011;23372;52.050;4.810;2023-07-13T06:04:50;24.77;;;5.85;;
37527;SDS011;23372;52.050;4.810;2023-07-13T06:07:17;22.05;;;5.18;;
37527;SDS011;23372;52.050;4.810;2023-07-13T06:09:43;22.15;;;6.40;;
37527;SDS011;23372;52.050;4.810;2023-07-13T06:12:09;20.73;;;7.63;;
37527;SDS011;23372;52.050;4.810;2023-07-13T06:14:35;24.42;;;6.97;;
37527;SDS011;23372;52.050;4.810;2023-07-13T06:17:01;20.55;;;5.53;;
37527;SDS011;23372;52.050;4.810;2023-07-13T06:19:26;22.40;;;5.80;;
37527;SDS011;23372;52.050;4.810;2023-07-13T06:21:52;17.45;;;5.72;;
37527;SDS011;23372;52.050;4.810;2023-07-13T06:24:17;17.23;;;6.05;;
37527;SDS011;23372;52.050;4.810;2023-07-13T06:26:43;17.08;;;5.70;;
37527;SDS011;23372;52.050;4.810;2023-07-13T06:29:09;26.58;;;6.47;;
37527;SDS011;23372;52.050;4.810;2023-07-13T06:31:35;29.05;;;7.10;;
37527;SDS011;23372;52.050;4.810;2023-07-13T06:34:00;16.63;;;6.13;;
37527;SDS011;23372;52.050;4.810;2023-07-13T06:36:26;12.32;;;4.15;;
37527;SDS011;23372;52.050;4.810;2023-07-13T06:38:52;16.45;;;4.45;;
37527;SDS011;23372;52.050;4.810;2023-07-13T06:41:18;10.77;;;2.83;;
37527;SDS011;23372;52.050;4.810;2023-07-13T06:43:43;7.93;;;2.53;;
37527;SDS011;23372;52.050;4.810;2023-07-13T06:46:09;9.18;;;3.30;;
37527;SDS011;23372;52.050;4.810;2023-07-13T06:48:35;13.98;;;4.03;;
37527;SDS011;23372;52.050;4.810;2023-07-13T06:51:01;9.52;;;3.10;;
37527;SDS011;23372;52.050;4.810;2023-07-13T06:53:28;9.82;;;3.17;;
37527;SDS011;23372;52.050;4.810;2023-07-13T06:55:54;9.68;;;2.88;;
37527;SDS011;23372;52.050;4.810;2023-07-13T06:58:21;9.45;;;3.13;;
37527;SDS011;23372;52.050;4.810;2023-07-13T07:00:49;11.15;;;3.50;;
37527;SDS011;23372;52.050;4.810;2023-07-13T07:03:17;11.10;;;3.20;;
37527;SDS011;23372;52.050;4.810;2023-07-13T07:05:42;10.63;;;3.85;;
37527;SDS011;23372;52.050;4.810;2023-07-13T07:08:08;6.70;;;3.15;;
37527;SDS011;23372;52.050;4.810;2023-07-13T07:10:34;9.98;;;3.25;;
37527;SDS011;23372;52.050;4.810;2023-07-13T07:13:01;10.68;;;4.05;;
37527;SDS011;23372;52.050;4.810;2023-07-13T07:15:28;9.77;;;3.33;;
37527;SDS011;23372;52.050;4.810;2023-07-13T07:17:54;9.63;;;3.38;;
37527;SDS011;23372;52.050;4.810;2023-07-13T07:20:21;6.95;;;2.97;;
37527;SDS011;23372;52.050;4.810;2023-07-13T07:22:47;6.32;;;2.55;;
37527;SDS011;23372;52.050;4.810;2023-07-13T07:25:12;9.40;;;3.10;;
37527;SDS011;23372;52.050;4.810;2023-07-13T07:27:38;7.65;;;2.83;;
37527;SDS011;23372;52.050;4.810;2023-07-13T07:30:04;5.57;;;2.90;;
37527;SDS011;23372;52.050;4.810;2023-07-13T07:32:30;6.63;;;2.45;;
37527;SDS011;23372;52.050;4.810;2023-07-13T07:34:57;6.20;;;2.40;;
37527;SDS011;23372;52.050;4.810;2023-07-13T07:37:23;6.80;;;2.45;;
37527;SDS011;23372;52.050;4.810;2023-07-13T07:39:49;4.95;;;2.38;;
37527;SDS011;23372;52.050;4.810;2023-07-13T07:42:15;7.00;;;3.25;;
37527;SDS011;23372;52.050;4.810;2023-07-13T07:44:41;10.68;;;4.05;;
37527;SDS011;23372;52.050;4.810;2023-07-13T07:47:07;12.55;;;4.45;;
37527;SDS011;23372;52.050;4.810;2023-07-13T07:49:32;14.20;;;5.05;;
37527;SDS011;23372;52.050;4.810;2023-07-13T07:51:59;10.48;;;4.82;;
37527;SDS011;23372;52.050;4.810;2023-07-13T07:54:25;13.27;;;5.03;;
37527;SDS011;23372;52.050;4.810;2023-07-13T07:56:51;11.05;;;4.43;;
37527;SDS011;23372;52.050;4.810;2023-07-13T07:59:16;14.93;;;5.35;;
37527;SDS011;23372;52.050;4.810;2023-07-13T08:01:42;10.05;;;3.85;;
37527;SDS011;23372;52.050;4.810;2023-07-13T08:04:08;10.20;;;3.00;;
37527;SDS011;23372;52.050;4.810;2023-07-13T08:06:34;8.23;;;3.00;;
37527;SDS011;23372;52.050;4.810;2023-07-13T08:09:00;9.93;;;3.33;;
37527;SDS011;23372;52.050;4.810;2023-07-13T08:11:27;9.88;;;3.67;;
37527;SDS011;23372;52.050;4.810;2023-07-13T08:13:53;10.40;;;2.97;;
37527;SDS011;23372;52.050;4.810;2023-07-13T08:16:18;7.03;;;2.60;;
37527;SDS011;23372;52.050;4.810;2023-07-13T08:18:44;7.40;;;3.03;;
37527;SDS011;23372;52.050;4.810;2023-07-13T08:21:10;6.45;;;2.50;;
37527;SDS011;23372;52.050;4.810;2023-07-13T08:23:35;6.45;;;2.25;;
37527;SDS011;23372;52.050;4.810;2023-07-13T08:26:02;4.53;;;2.00;;
37527;SDS011;23372;52.050;4.810;2023-07-13T08:28:29;6.75;;;2.92;;
37527;SDS011;23372;52.050;4.810;2023-07-13T08:30:55;8.18;;;2.33;;
37527;SDS011;23372;52.050;4.810;2023-07-13T08:33:28;11.18;;;2.63;;
37527;SDS011;23372;52.050;4.810;2023-07-13T08:35:54;9.52;;;2.90;;
37527;SDS011;23372;52.050;4.810;2023-07-13T08:38:20;8.80;;;3.00;;
37527;SDS011;23372;52.050;4.810;2023-07-13T08:40:49;8.27;;;2.92;;
37527;SDS011;23372;52.050;4.810;2023-07-13T08:43:18;8.25;;;3.22;;
37527;SDS011;23372;52.050;4.810;2023-07-13T08:45:51;13.35;;;3.70;;
37527;SDS011;23372;52.050;4.810;2023-07-13T08:48:25;8.35;;;3.13;;
37527;SDS011;23372;52.050;4.810;2023-07-13T08:50:57;7.15;;;3.05;;
37527;SDS011;23372;52.050;4.810;2023-07-13T08:53:40;7.80;;;2.60;;
37527;SDS011;23372;52.050;4.810;2023-07-13T08:56:16;9.70;;;3.15;;
37527;SDS011;23372;52.050;4.810;2023-07-13T08:58:44;7.07;;;2.70;;
37527;SDS011;23372;52.050;4.810;2023-07-13T09:01:22;9.35;;;2.92;;
37527;SDS011;23372;52.050;4.810;2023-07-13T09:12:22;6.95;;;2.78;;
37527;SDS011;23372;52.050;4.810;2023-07-13T09:14:58;8.75;;;3.30;;
37527;SDS011;23372;52.050;4.810;2023-07-13T09:17:29;14.30;;;3.75;;
37527;SDS011;23372;52.050;4.810;2023-07-13T09:20:40;9.35;;;4.00;;
37527;SDS011;23372;52.050;4.810;2023-07-13T09:23:00;7.55;;;2.95;;
37527;SDS011;23372;52.050;4.810;2023-07-13T09:28:00;9.70;;;3.58;;
37527;SDS011;23372;52.050;4.810;2023-07-13T09:33:28;8.93;;;4.00;;
37527;SDS011;23372;52.050;4.810;2023-07-13T09:35:56;12.10;;;4.28;;
37527;SDS011;23372;52.050;4.810;2023-07-13T09:38:28;9.98;;;4.35;;
37527;SDS011;23372;52.050;4.810;2023-07-13T09:43:24;13.32;;;3.92;;
37527;SDS011;23372;52.050;4.810;2023-07-13T09:45:50;16.35;;;5.25;;
37527;SDS011;23372;52.050;4.810;2023-07-13T09:48:16;10.48;;;3.60;;
37527;SDS011;23372;52.050;4.810;2023-07-13T09:50:43;9.50;;;3.83;;
37527;SDS011;23372;52.050;4.810;2023-07-13T09:53:16;8.05;;;3.88;;
37527;SDS011;23372;52.050;4.810;2023-07-13T09:55:47;10.90;;;4.32;;
37527;SDS011;23372;52.050;4.810;2023-07-13T09:58:18;10.38;;;3.42;;
37527;SDS011;23372;52.050;4.810;2023-07-13T10:01:05;4.40;;;2.42;;
37527;SDS011;23372;52.050;4.810;2023-07-13T10:03:33;4.03;;;2.00;;
37527;SDS011;23372;52.050;4.810;2023-07-13T10:06:18;4.57;;;2.38;;
37527;SDS011;23372;52.050;4.810;2023-07-13T10:08:47;5.15;;;2.25;;
37527;SDS011;23372;52.050;4.810;2023-07-13T10:11:18;4.82;;;2.78;;
37527;SDS011;23372;52.050;4.810;2023-07-13T10:14:17;6.05;;;2.25;;
37527;SDS011;23372;52.050;4.810;2023-07-13T10:16:48;7.55;;;2.45;;
37527;SDS011;23372;52.050;4.810;2023-07-13T10:19:25;10.82;;;3.78;;
37527;SDS011;23372;52.050;4.810;2023-07-13T10:21:59;6.40;;;3.58;;
37527;SDS011;23372;52.050;4.810;2023-07-13T10:24:36;8.52;;;3.78;;
37527;SDS011;23372;52.050;4.810;2023-07-13T10:28:04;7.63;;;3.80;;
37527;SDS011;23372;52.050;4.810;2023-07-13T10:32:37;8.63;;;2.83;;
37527;SDS011;23372;52.050;4.810;2023-07-13T10:35:03;8.07;;;3.58;;
37527;SDS011;23372;52.050;4.810;2023-07-13T10:37:33;8.95;;;2.88;;
37527;SDS011;23372;52.050;4.810;2023-07-13T10:40:13;11.10;;;3.92;;
37527;SDS011;23372;52.050;4.810;2023-07-13T10:42:44;9.55;;;3.42;;
37527;SDS011;23372;52.050;4.810;2023-07-13T10:45:13;5.10;;;3.00;;
37527;SDS011;23372;52.050;4.810;2023-07-13T10:47:41;7.43;;;3.40;;
37527;SDS011;23372;52.050;4.810;2023-07-13T10:50:11;11.30;;;3.47;;
37527;SDS011;23372;52.050;4.810;2023-07-13T10:52:46;11.45;;;3.60;;
37527;SDS011;23372;52.050;4.810;2023-07-13T10:55:35;8.38;;;3.30;;
37527;SDS011;23372;52.050;4.810;2023-07-13T10:58:01;4.93;;;2.92;;
37527;SDS011;23372;52.050;4.810;2023-07-13T11:00:42;7.30;;;3.95;;
37527;SDS011;23372;52.050;4.810;2023-07-13T11:03:13;9.55;;;3.15;;
37527;SDS011;23372;52.050;4.810;2023-07-13T11:05:41;7.50;;;2.80;;
37527;SDS011;23372;52.050;4.810;2023-07-13T11:08:31;10.45;;;2.67;;
37527;SDS011;23372;52.050;4.810;2023-07-13T11:11:02;7.80;;;2.78;;
37527;SDS011;23372;52.050;4.810;2023-07-13T11:14:14;4.88;;;2.75;;
37527;SDS011;23372;52.050;4.810;2023-07-13T11:18:47;7.85;;;3.00;;
37527;SDS011;23372;52.050;4.810;2023-07-13T11:21:15;5.22;;;2.60;;
37527;SDS011;23372;52.050;4.810;2023-07-13T11:23:43;5.03;;;2.50;;
37527;SDS011;23372;52.050;4.810;2023-07-13T11:29:25;5.97;;;2.40;;
37527;SDS011;23372;52.050;4.810;2023-07-13T11:31:58;5.85;;;2.40;;
37527;SDS011;23372;52.050;4.810;2023-07-13T11:34:33;6.97;;;2.67;;
37527;SDS011;23372;52.050;4.810;2023-07-13T11:37:01;7.93;;;2.70;;
37527;SDS011;23372;52.050;4.810;2023-07-13T11:39:34;4.22;;;2.35;;
37527;SDS011;23372;52.050;4.810;2023-07-13T11:42:03;4.38;;;2.20;;
37527;SDS011;23372;52.050;4.810;2023-07-13T11:44:34;7.63;;;2.55;;
37527;SDS011;23372;52.050;4.810;2023-07-13T11:47:00;6.50;;;2.45;;
37527;SDS011;23372;52.050;4.810;2023-07-13T11:49:41;5.95;;;2.17;;
37527;SDS011;23372;52.050;4.810;2023-07-13T11:52:13;5.85;;;2.70;;
37527;SDS011;23372;52.050;4.810;2023-07-13T11:54:45;5.15;;;2.28;;
37527;SDS011;23372;52.050;4.810;2023-07-13T11:59:59;6.88;;;2.53;;
37527;SDS011;23372;52.050;4.810;2023-07-13T12:02:32;8.05;;;2.38;;
37527;SDS011;23372;52.050;4.810;2023-07-13T12:05:00;6.05;;;2.40;;
37527;SDS011;23372;52.050;4.810;2023-07-13T12:07:29;7.38;;;2.58;;
37527;SDS011;23372;52.050;4.810;2023-07-13T12:10:03;6.28;;;2.15;;
37527;SDS011;23372;52.050;4.810;2023-07-13T12:12:53;4.53;;;2.28;;
37527;SDS011;23372;52.050;4.810;2023-07-13T12:15:26;7.13;;;2.35;;
37527;SDS011;23372;52.050;4.810;2023-07-13T12:18:01;5.28;;;2.40;;
37527;SDS011;23372;52.050;4.810;2023-07-13T12:20:28;5.28;;;2.55;;
37527;SDS011;23372;52.050;4.810;2023-07-13T12:23:04;5.28;;;2.40;;
37527;SDS011;23372;52.050;4.810;2023-07-13T12:25:32;6.35;;;2.25;;
37527;SDS011;23372;52.050;4.810;2023-07-13T12:27:58;7.03;;;2.30;;
37527;SDS011;23372;52.050;4.810;2023-07-13T12:30:26;7.53;;;2.67;;
37527;SDS011;23372;52.050;4.810;2023-07-13T12:33:16;6.85;;;2.22;;
37527;SDS011;23372;52.050;4.810;2023-07-13T12:35:42;7.80;;;2.80;;
37527;SDS011;23372;52.050;4.810;2023-07-13T12:38:15;7.65;;;2.20;;
37527;SDS011;23372;52.050;4.810;2023-07-13T12:40:41;5.80;;;2.10;;
37527;SDS011;23372;52.050;4.810;2023-07-13T12:43:11;4.22;;;1.90;;
37527;SDS011;23372;52.050;4.810;2023-07-13T12:45:38;5.80;;;2.45;;
37527;SDS011;23372;52.050;4.810;2023-07-13T12:48:19;7.85;;;2.85;;
37527;SDS011;23372;52.050;4.810;2023-07-13T12:50:46;7.13;;;2.70;;
37527;SDS011;23372;52.050;4.810;2023-07-13T12:53:16;7.47;;;2.47;;
37527;SDS011;23372;52.050;4.810;2023-07-13T12:55:47;5.72;;;2.58;;
37527;SDS011;23372;52.050;4.810;2023-07-13T12:58:16;9.50;;;2.78;;
37527;SDS011;23372;52.050;4.810;2023-07-13T13:01:03;7.63;;;2.83;;
37527;SDS011;23372;52.050;4.810;2023-07-13T13:06:03;4.50;;;2.67;;
37527;SDS011;23372;52.050;4.810;2023-07-13T13:08:31;8.98;;;2.50;;
37527;SDS011;23372;52.050;4.810;2023-07-13T13:11:01;7.18;;;2.88;;
37527;SDS011;23372;52.050;4.810;2023-07-13T13:13:28;5.43;;;2.65;;
37527;SDS011;23372;52.050;4.810;2023-07-13T13:15:53;4.30;;;2.58;;
37527;SDS011;23372;52.050;4.810;2023-07-13T13:18:20;5.78;;;2.47;;
37527;SDS011;23372;52.050;4.810;2023-07-13T13:20:48;5.63;;;2.70;;
37527;SDS011;23372;52.050;4.810;2023-07-13T13:23:17;7.82;;;2.40;;
37527;SDS011;23372;52.050;4.810;2023-07-13T13:25:46;7.30;;;2.05;;
37527;SDS011;23372;52.050;4.810;2023-07-13T13:28:14;10.65;;;2.88;;
37527;SDS011;23372;52.050;4.810;2023-07-13T13:30:43;5.57;;;2.53;;
37527;SDS011;23372;52.050;4.810;2023-07-13T13:33:13;6.85;;;2.58;;
37527;SDS011;23372;52.050;4.810;2023-07-13T13:35:42;4.85;;;2.33;;
37527;SDS011;23372;52.050;4.810;2023-07-13T13:38:13;7.40;;;2.67;;
37527;SDS011;23372;52.050;4.810;2023-07-13T13:40:41;4.32;;;1.98;;
37527;SDS011;23372;52.050;4.810;2023-07-13T13:43:13;4.15;;;1.85;;
37527;SDS011;23372;52.050;4.810;2023-07-13T13:45:43;4.72;;;1.80;;
37527;SDS011;23372;52.050;4.810;2023-07-13T13:48:20;6.40;;;2.17;;
37527;SDS011;23372;52.050;4.810;2023-07-13T13:50:55;5.07;;;2.15;;
37527;SDS011;23372;52.050;4.810;2023-07-13T13:53:22;3.83;;;1.98;;
37527;SDS011;23372;52.050;4.810;2023-07-13T13:55:48;2.88;;;1.50;;
37527;SDS011;23372;52.050;4.810;2023-07-13T13:58:14;7.45;;;2.22;;
37527;SDS011;23372;52.050;4.810;2023-07-13T14:00:40;4.78;;;2.03;;
37527;SDS011;23372;52.050;4.810;2023-07-13T14:03:28;5.22;;;2.25;;
37527;SDS011;23372;52.050;4.810;2023-07-13T14:05:54;4.10;;;2.08;;
37527;SDS011;23372;52.050;4.810;2023-07-13T14:08:22;5.10;;;2.05;;
37527;SDS011;23372;52.050;4.810;2023-07-13T14:10:49;5.50;;;1.73;;
37527;SDS011;23372;52.050;4.810;2023-07-13T14:13:27;5.55;;;2.35;;
37527;SDS011;23372;52.050;4.810;2023-07-13T14:15:59;6.53;;;2.20;;
37527;SDS011;23372;52.050;4.810;2023-07-13T14:18:25;5.43;;;2.00;;
37527;SDS011;23372;52.050;4.810;2023-07-13T14:20:51;4.72;;;2.30;;
37527;SDS011;23372;52.050;4.810;2023-07-13T14:23:17;4.93;;;2.05;;
37527;SDS011;23372;52.050;4.810;2023-07-13T14:25:44;4.68;;;2.17;;
37527;SDS011;23372;52.050;4.810;2023-07-13T14:28:18;7.90;;;2.10;;
37527;SDS011;23372;52.050;4.810;2023-07-13T14:30:48;3.35;;;2.08;;
37527;SDS011;23372;52.050;4.810;2023-07-13T14:33:14;4.63;;;2.20;;
37527;SDS011;23372;52.050;4.810;2023-07-13T14:35:40;5.38;;;1.65;;
37527;SDS011;23372;52.050;4.810;2023-07-13T14:38:09;5.32;;;1.73;;
37527;SDS011;23372;52.050;4.810;2023-07-13T14:40:38;5.72;;;1.95;;
37527;SDS011;23372;52.050;4.810;2023-07-13T14:43:07;3.22;;;1.55;;
37527;SDS011;23372;52.050;4.810;2023-07-13T14:45:39;6.15;;;2.00;;
37527;SDS011;23372;52.050;4.810;2023-07-13T14:48:20;6.97;;;2.00;;
37527;SDS011;23372;52.050;4.810;2023-07-13T14:50:57;4.72;;;1.63;;
37527;SDS011;23372;52.050;4.810;2023-07-13T14:53:25;5.43;;;1.67;;
37527;SDS011;23372;52.050;4.810;2023-07-13T14:55:53;4.18;;;1.42;;
37527;SDS011;23372;52.050;4.810;2023-07-13T14:58:19;4.28;;;1.45;;
37527;SDS011;23372;52.050;4.810;2023-07-13T15:00:44;6.30;;;1.60;;
37527;SDS011;23372;52.050;4.810;2023-07-13T15:03:29;6.38;;;1.83;;
37527;SDS011;23372;52.050;4.810;2023-07-13T15:05:55;3.92;;;1.70;;
37527;SDS011;23372;52.050;4.810;2023-07-13T15:08:21;3.42;;;1.52;;
37527;SDS011;23372;52.050;4.810;2023-07-13T15:10:46;3.10;;;1.58;;
37527;SDS011;23372;52.050;4.810;2023-07-13T15:13:16;3.90;;;1.45;;
37527;SDS011;23372;52.050;4.810;2023-07-13T15:15:51;4.15;;;1.58;;
37527;SDS011;23372;52.050;4.810;2023-07-13T15:18:18;3.08;;;1.73;;